createdAt,value
2019-01-13T00:00:15.939Z,47.33
2019-01-13T00:02:44.357Z,77.73
2019-01-13T00:05:12.924Z,33.87
2019-01-13T00:07:41.358Z,61.80
2019-01-13T00:10:09.844Z,59.20
2019-01-13T00:12:38.246Z,55.60
2019-01-13T00:15:09.001Z,58.77
2019-01-13T00:17:37.473Z,53.30
2019-01-13T00:20:11.059Z,59.30
2019-01-13T00:22:39.479Z,48.37
2019-01-13T00:25:08.149Z,49.37
2019-01-13T00:27:36.543Z,41.83
2019-01-13T00:30:19.185Z,52.33
2019-01-13T00:32:44.036Z,39.27
2019-01-13T00:35:12.469Z,55.57
2019-01-13T00:37:40.877Z,54.43
2019-01-13T00:40:15.442Z,36.80
2019-01-13T00:42:43.927Z,46.13
2019-01-13T00:45:14.073Z,52.97
2019-01-13T00:47:42.487Z,38.93
2019-01-13T00:50:13.218Z,43.90
2019-01-13T00:52:41.729Z,45.23
2019-01-13T00:55:12.892Z,73.93
2019-01-13T00:57:41.365Z,52.10
2019-01-13T01:00:26.555Z,40.77
2019-01-13T01:02:51.905Z,42.37
2019-01-13T01:05:20.455Z,55.70
2019-01-13T01:07:50.497Z,52.17
2019-01-13T01:10:20.168Z,41.07
2019-01-13T01:12:48.719Z,42.63
2019-01-13T01:15:17.267Z,36.47
2019-01-13T01:17:45.769Z,40.33
2019-01-13T01:20:15.542Z,41.20
2019-01-13T01:22:43.943Z,31.23
2019-01-13T01:25:15.308Z,43.87
2019-01-13T01:27:43.779Z,32.93
2019-01-13T01:30:17.731Z,49.23
2019-01-13T01:32:46.280Z,30.73
2019-01-13T01:35:14.851Z,33.07
2019-01-13T01:37:43.259Z,41.73
2019-01-13T01:40:14.589Z,43.33
2019-01-13T01:42:42.983Z,30.90
2019-01-13T01:45:13.130Z,45.63
2019-01-13T01:47:41.543Z,38.93
2019-01-13T01:50:11.924Z,47.97
2019-01-13T01:52:40.381Z,44.17
2019-01-13T01:55:11.562Z,45.70
2019-01-13T01:57:40.052Z,35.03
2019-01-13T02:00:11.578Z,25.67
2019-01-13T02:02:39.997Z,42.30
2019-01-13T02:05:08.549Z,28.73
2019-01-13T02:07:37.193Z,24.50
2019-01-13T02:10:14.287Z,44.67
2019-01-13T02:12:42.781Z,51.37
2019-01-13T02:15:14.289Z,40.33
2019-01-13T02:17:42.703Z,39.30
2019-01-13T02:20:13.844Z,42.47
2019-01-13T02:22:42.332Z,33.97
2019-01-13T02:25:13.379Z,36.57
2019-01-13T02:27:41.819Z,30.57
2019-01-13T02:30:13.272Z,31.20
2019-01-13T02:32:41.912Z,29.07
2019-01-13T02:35:10.557Z,34.30
2019-01-13T02:37:38.980Z,25.97
2019-01-13T02:40:10.719Z,20.30
2019-01-13T02:42:39.112Z,20.93
2019-01-13T02:45:13.236Z,28.13
2019-01-13T02:47:41.632Z,17.37
2019-01-13T02:50:11.810Z,16.70
2019-01-13T02:52:40.252Z,15.53
2019-01-13T02:55:09.075Z,21.37
2019-01-13T02:57:37.575Z,21.90
2019-01-13T03:00:14.444Z,22.53
2019-01-13T03:02:42.924Z,32.13
2019-01-13T03:05:13.351Z,22.63
2019-01-13T03:07:41.841Z,21.33
2019-01-13T03:10:13.546Z,19.93
2019-01-13T03:12:41.966Z,33.13
2019-01-13T03:15:19.354Z,26.93
2019-01-13T03:17:42.448Z,23.30
2019-01-13T03:20:12.512Z,26.87
2019-01-13T03:22:41.153Z,39.77
2019-01-13T03:25:12.287Z,33.23
2019-01-13T03:27:40.955Z,39.07
2019-01-13T03:30:12.759Z,33.33
2019-01-13T03:32:41.464Z,38.83
2019-01-13T03:35:10.168Z,40.50
2019-01-13T03:37:38.643Z,35.30
2019-01-13T03:40:15.356Z,47.40
2019-01-13T03:42:43.774Z,38.73
2019-01-13T03:45:12.358Z,35.80
2019-01-13T03:47:40.798Z,36.97
2019-01-13T03:50:17.247Z,41.27
2019-01-13T03:52:52.794Z,43.43
2019-01-13T03:55:17.918Z,35.73
2019-01-13T03:57:46.438Z,40.97
2019-01-13T04:00:20.152Z,29.37
2019-01-13T04:02:48.653Z,34.53
2019-01-13T04:05:17.208Z,30.23
2019-01-13T04:07:45.718Z,24.73
2019-01-13T04:10:15.869Z,38.10
2019-01-13T04:12:44.414Z,30.43
2019-01-13T04:15:42.085Z,44.80
2019-01-13T04:18:10.622Z,40.80
2019-01-13T04:20:39.081Z,35.57
2019-01-13T04:23:07.526Z,40.80
2019-01-13T04:25:35.918Z,41.63
2019-01-13T04:28:04.694Z,31.97
2019-01-13T04:30:33.178Z,43.37
2019-01-13T04:33:01.622Z,40.30
2019-01-13T04:35:30.055Z,41.13
2019-01-13T04:37:58.454Z,37.77
2019-01-13T04:40:26.949Z,33.93
2019-01-13T04:42:55.468Z,35.27
2019-01-13T04:45:23.921Z,25.67
2019-01-13T04:47:52.390Z,27.60
2019-01-13T04:50:20.826Z,29.37
2019-01-13T04:52:49.306Z,26.17
2019-01-13T04:55:17.748Z,31.17
2019-01-13T04:57:46.178Z,23.83
2019-01-13T05:00:17.337Z,33.77
2019-01-13T05:02:45.945Z,44.23
2019-01-13T05:05:14.384Z,42.77
2019-01-13T05:07:42.862Z,39.20
2019-01-13T05:10:19.432Z,38.40
2019-01-13T05:12:47.991Z,33.57
2019-01-13T05:15:16.762Z,36.40
2019-01-13T05:17:45.279Z,34.20
2019-01-13T05:20:16.274Z,32.90
2019-01-13T05:22:44.769Z,38.33
2019-01-13T05:25:13.367Z,23.67
2019-01-13T05:27:41.772Z,20.67
2019-01-13T05:30:15.796Z,18.17
2019-01-13T05:32:44.277Z,18.97
2019-01-13T05:35:12.895Z,19.23
2019-01-13T05:37:41.326Z,19.80
2019-01-13T05:40:12.814Z,14.93
2019-01-13T05:42:41.247Z,18.73
2019-01-13T05:45:12.367Z,19.23
2019-01-13T05:47:40.798Z,11.03
2019-01-13T05:50:11.961Z,10.47
2019-01-13T05:52:41.445Z,11.20
2019-01-13T05:55:09.999Z,12.33
2019-01-13T05:57:38.437Z,17.43
2019-01-13T06:00:17.772Z,16.10
2019-01-13T06:02:46.311Z,21.27
2019-01-13T06:05:14.741Z,20.07
2019-01-13T06:07:43.218Z,28.63
2019-01-13T06:10:14.298Z,34.53
2019-01-13T06:12:42.734Z,29.87
2019-01-13T06:15:13.988Z,30.03
2019-01-13T06:17:42.433Z,34.90
2019-01-13T06:20:13.789Z,36.73
2019-01-13T06:22:42.290Z,42.37
2019-01-13T06:25:10.766Z,43.03
2019-01-13T06:27:39.484Z,36.83
2019-01-13T06:30:10.978Z,41.07
2019-01-13T06:32:39.384Z,41.83
2019-01-13T06:35:07.891Z,38.40
2019-01-13T06:37:36.298Z,36.10
2019-01-13T06:40:08.266Z,36.70
2019-01-13T06:42:36.697Z,32.03
2019-01-13T06:45:08.188Z,44.70
2019-01-13T06:47:36.605Z,34.83
2019-01-13T06:50:08.433Z,27.40
2019-01-13T06:52:36.863Z,27.83
2019-01-13T06:55:07.345Z,31.27
2019-01-13T06:57:35.828Z,27.70
2019-01-13T07:00:07.311Z,32.87
2019-01-13T07:02:35.758Z,20.83
2019-01-13T07:05:05.934Z,24.80
2019-01-13T07:07:34.357Z,22.97
2019-01-13T07:10:03.578Z,23.37
2019-01-13T07:12:32.045Z,19.93
2019-01-13T07:15:00.494Z,24.37
2019-01-13T07:17:28.950Z,23.57
2019-01-13T07:19:57.358Z,23.77
2019-01-13T07:22:25.805Z,22.80
2019-01-13T07:24:54.470Z,26.50
2019-01-13T07:27:22.981Z,27.03
2019-01-13T07:29:51.390Z,30.63
2019-01-13T07:32:19.838Z,23.63
2019-01-13T07:34:48.272Z,29.50
2019-01-13T07:37:16.689Z,31.70
2019-01-13T07:39:45.130Z,21.60
2019-01-13T07:42:13.794Z,27.43
2019-01-13T07:44:42.234Z,28.63
2019-01-13T07:47:10.672Z,30.23
2019-01-13T07:49:39.110Z,22.23
2019-01-13T07:52:07.518Z,21.10
2019-01-13T07:54:35.941Z,18.47
2019-01-13T07:57:04.458Z,21.77
2019-01-13T07:59:32.861Z,19.40
2019-01-13T08:02:01.278Z,21.07
2019-01-13T08:04:29.721Z,24.23
2019-01-13T08:06:58.135Z,28.40
2019-01-13T08:09:26.569Z,20.23
2019-01-13T08:11:54.984Z,25.43
2019-01-13T08:14:23.422Z,24.40
2019-01-13T08:16:51.838Z,21.13
2019-01-13T08:19:20.521Z,19.87
2019-01-13T08:21:48.931Z,19.97
2019-01-13T08:24:17.363Z,25.20
2019-01-13T08:26:45.782Z,20.03
2019-01-13T08:29:14.239Z,11.23
2019-01-13T08:31:42.647Z,13.63
2019-01-13T08:34:11.122Z,12.57
2019-01-13T08:36:39.572Z,13.67
2019-01-13T08:39:08.212Z,10.50
2019-01-13T08:41:36.651Z,15.43
2019-01-13T08:44:05.153Z,10.37
2019-01-13T08:46:33.598Z,7.63
2019-01-13T08:49:02.029Z,10.33
2019-01-13T08:51:31.737Z,16.87
2019-01-13T08:54:00.195Z,14.97
2019-01-13T08:56:28.598Z,14.47
2019-01-13T08:58:57.051Z,10.03
2019-01-13T09:01:25.488Z,15.73
2019-01-13T09:03:53.925Z,10.77
2019-01-13T09:06:22.385Z,10.13
2019-01-13T09:08:50.819Z,20.57
2019-01-13T09:11:19.290Z,14.07
2019-01-13T09:13:47.734Z,12.70
2019-01-13T09:16:16.133Z,7.80
2019-01-13T09:18:44.571Z,17.27
2019-01-13T09:21:12.977Z,13.53
2019-01-13T09:23:41.407Z,11.07
2019-01-13T09:26:09.857Z,11.33
2019-01-13T09:28:38.257Z,10.63
2019-01-13T09:31:06.690Z,8.43
2019-01-13T09:33:35.115Z,10.00
2019-01-13T09:36:04.490Z,8.07
2019-01-13T09:38:32.903Z,14.10
2019-01-13T09:41:01.454Z,11.87
2019-01-13T09:43:29.886Z,4.90
2019-01-13T09:45:58.297Z,10.67
2019-01-13T09:48:26.710Z,6.63
2019-01-13T09:50:55.198Z,8.17
2019-01-13T09:53:25.286Z,8.27
2019-01-13T09:55:53.882Z,6.60
2019-01-13T09:58:22.359Z,7.00
2019-01-13T10:00:50.793Z,6.53
2019-01-13T10:03:19.201Z,4.60
2019-01-13T10:05:47.653Z,10.87
2019-01-13T10:08:16.386Z,5.50
2019-01-13T10:10:44.830Z,5.47
2019-01-13T10:13:13.235Z,7.07
2019-01-13T10:15:41.667Z,5.30
2019-01-13T10:18:10.198Z,4.87
2019-01-13T10:20:38.678Z,5.87
2019-01-13T10:23:07.163Z,2.43
2019-01-13T10:25:35.612Z,3.13
2019-01-13T10:28:04.281Z,6.07
2019-01-13T10:30:32.854Z,4.77
2019-01-13T10:33:01.427Z,2.30
2019-01-13T10:35:29.902Z,3.37
2019-01-13T10:37:58.574Z,3.53
2019-01-13T10:40:28.081Z,4.60
2019-01-13T10:42:56.674Z,4.23
2019-01-13T10:45:25.246Z,6.03
2019-01-13T10:47:54.026Z,6.30
2019-01-13T10:50:24.377Z,3.00
2019-01-13T10:52:53.710Z,6.10
2019-01-13T10:55:22.287Z,6.07
2019-01-13T10:57:50.714Z,8.77
2019-01-13T12:23:18.132Z,20.90
2019-01-13T12:25:52.601Z,23.17
2019-01-13T12:28:16.666Z,24.83
2019-01-13T12:30:45.161Z,26.07
2019-01-13T12:33:13.566Z,29.90
2019-01-13T12:35:42.063Z,25.90
2019-01-13T12:38:10.514Z,26.33
2019-01-13T12:40:38.905Z,37.50
2019-01-13T12:43:07.767Z,34.53
2019-01-13T12:45:36.202Z,33.10
2019-01-13T12:48:05.438Z,40.70
2019-01-13T12:50:34.270Z,38.63
2019-01-13T12:53:03.166Z,37.40
2019-01-13T12:55:31.676Z,42.43
2019-01-13T12:58:00.108Z,39.40
2019-01-13T13:00:29.315Z,30.70
2019-01-13T13:02:57.784Z,23.53
2019-01-13T13:05:26.246Z,38.33
2019-01-13T13:07:54.695Z,32.67
2019-01-13T13:10:26.349Z,49.97
2019-01-13T13:12:54.783Z,48.93
2019-01-13T13:15:23.203Z,49.47
2019-01-13T13:17:51.635Z,46.07
2019-01-13T13:20:20.084Z,56.27
2019-01-13T13:22:48.566Z,43.20
2019-01-13T13:25:17.136Z,63.13
2019-01-13T13:27:45.630Z,53.30
2019-01-13T13:30:19.938Z,54.03
2019-01-13T13:32:48.418Z,46.80
2019-01-13T13:35:16.830Z,57.93
2019-01-13T13:37:45.642Z,70.87
2019-01-13T13:40:17.060Z,64.73
2019-01-13T13:42:45.553Z,66.93
2019-01-13T13:45:14.108Z,61.67
2019-01-13T13:47:42.653Z,85.07
2019-01-13T13:50:13.793Z,56.47
2019-01-13T13:52:42.314Z,59.80
2019-01-13T13:55:11.360Z,59.10
2019-01-13T13:57:39.824Z,50.17
2019-01-13T14:00:20.040Z,78.57
2019-01-13T14:02:48.618Z,49.20
2019-01-13T14:05:17.110Z,55.03
2019-01-13T14:07:45.516Z,57.97
2019-01-13T14:10:22.593Z,59.43
2019-01-13T14:12:51.004Z,46.87
2019-01-13T14:15:19.447Z,58.80
2019-01-13T14:17:47.874Z,54.13
2019-01-13T14:20:18.543Z,42.20
2019-01-13T14:22:47.490Z,78.50
2019-01-13T14:25:15.931Z,47.90
2019-01-13T14:27:45.235Z,44.80
2019-01-13T14:30:21.911Z,50.87
2019-01-13T14:32:50.337Z,59.73
2019-01-13T14:35:18.794Z,56.77
2019-01-13T14:37:47.371Z,43.80
2019-01-13T14:40:18.071Z,42.80
2019-01-13T14:42:46.555Z,44.13
2019-01-13T14:45:17.028Z,51.70
2019-01-13T14:47:45.597Z,45.23
2019-01-13T14:50:16.809Z,58.20
2019-01-13T14:52:46.929Z,42.97
2019-01-13T14:55:15.798Z,46.93
2019-01-13T14:57:44.314Z,34.90
2019-01-13T15:00:18.617Z,53.87
2019-01-13T15:02:47.099Z,27.63
2019-01-13T15:05:15.537Z,15.37
2019-01-13T15:07:44.118Z,26.87
2019-01-13T15:10:15.174Z,17.40
2019-01-13T15:12:43.598Z,18.70
2019-01-13T15:15:14.414Z,18.53
2019-01-13T15:17:42.936Z,15.53
2019-01-13T15:20:15.937Z,24.60
2019-01-13T15:22:44.486Z,20.97
2019-01-13T15:25:19.080Z,25.27
2019-01-13T15:27:47.630Z,18.37
2019-01-13T15:30:21.210Z,33.30
2019-01-13T15:32:49.627Z,32.47
2019-01-13T15:35:18.065Z,37.80
2019-01-13T15:37:46.541Z,25.80
2019-01-13T15:40:17.876Z,39.03
2019-01-13T15:42:46.378Z,34.70
2019-01-13T15:45:15.738Z,34.43
2019-01-13T15:47:44.609Z,33.97
2019-01-13T15:50:21.976Z,56.63
2019-01-13T15:52:50.465Z,38.63
2019-01-13T15:55:19.072Z,52.07
2019-01-13T15:57:47.577Z,67.17
2019-01-13T16:00:18.730Z,44.33
2019-01-13T16:02:47.494Z,36.30
2019-01-13T16:05:15.975Z,44.03
2019-01-13T16:07:44.418Z,51.10
2019-01-13T16:10:15.434Z,43.77
2019-01-13T16:12:43.881Z,40.17
2019-01-13T16:15:13.684Z,33.83
2019-01-13T16:17:42.094Z,41.63
2019-01-13T16:20:16.682Z,31.97
2019-01-13T16:22:45.234Z,36.57
2019-01-13T16:25:13.657Z,38.60
2019-01-13T16:27:42.162Z,41.70
2019-01-13T16:30:13.671Z,40.00
2019-01-13T16:32:42.114Z,44.40
2019-01-13T16:35:10.682Z,47.73
2019-01-13T16:37:39.085Z,30.97
2019-01-13T16:40:10.537Z,38.03
2019-01-13T16:42:39.223Z,44.77
2019-01-13T16:45:12.834Z,49.93
2019-01-13T16:47:41.251Z,48.17
2019-01-13T16:50:13.138Z,42.77
2019-01-13T16:52:42.134Z,53.03
2019-01-13T16:55:11.511Z,44.30
2019-01-13T16:57:40.247Z,62.20
2019-01-13T17:00:17.251Z,50.33
2019-01-13T17:02:45.739Z,67.77
2019-01-13T17:05:17.013Z,59.20
2019-01-13T17:07:45.701Z,70.83
2019-01-13T17:10:16.341Z,60.83
2019-01-13T17:12:44.761Z,53.87
2019-01-13T17:15:15.437Z,54.87
2019-01-13T17:17:43.937Z,58.00
2019-01-13T17:20:17.525Z,49.87
2019-01-13T17:22:46.085Z,47.63
2019-01-13T17:25:17.317Z,54.60
2019-01-13T17:27:45.811Z,54.23
2019-01-13T17:30:19.899Z,51.57
2019-01-13T17:32:48.330Z,55.87
2019-01-13T17:35:17.346Z,49.30
2019-01-13T17:37:45.758Z,48.07
2019-01-13T17:40:21.990Z,63.83
2019-01-13T17:42:50.478Z,52.27
2019-01-13T17:45:21.589Z,46.13
2019-01-13T17:47:50.270Z,55.93
2019-01-13T17:50:23.283Z,50.33
2019-01-13T17:52:51.879Z,37.97
2019-01-13T17:55:22.206Z,53.60
2019-01-13T17:57:50.771Z,44.73
2019-01-13T18:00:37.385Z,48.83
2019-01-13T18:03:11.366Z,52.17
2019-01-13T18:05:39.813Z,53.10
2019-01-13T18:08:08.359Z,51.33
2019-01-13T18:10:36.774Z,54.57
2019-01-13T18:13:05.274Z,34.47
2019-01-13T18:15:33.731Z,50.83
2019-01-13T18:18:02.288Z,47.47
2019-01-13T18:20:30.749Z,50.47
2019-01-13T18:22:59.191Z,56.33
2019-01-13T18:25:27.642Z,50.43
2019-01-13T18:27:56.118Z,47.97
2019-01-13T18:30:26.778Z,54.83
2019-01-13T18:32:55.225Z,56.03
2019-01-13T18:35:23.910Z,42.63
2019-01-13T18:37:52.321Z,55.33
2019-01-13T18:40:22.186Z,40.40
2019-01-13T18:42:50.630Z,37.47
2019-01-13T18:45:19.124Z,42.33
2019-01-13T18:47:47.542Z,46.43
2019-01-13T18:50:20.774Z,51.77
2019-01-13T18:52:57.898Z,47.17
2019-01-13T18:55:26.357Z,48.07
2019-01-13T18:57:54.785Z,44.57
2019-01-13T19:00:24.569Z,43.57
2019-01-13T19:02:53.234Z,44.67
2019-01-13T19:05:26.694Z,38.13
2019-01-13T19:07:55.262Z,37.23
2019-01-13T19:10:41.576Z,35.17
2019-01-13T19:13:29.189Z,38.63
2019-01-13T19:15:58.690Z,45.00
2019-01-13T19:18:27.094Z,37.60
2019-01-13T19:20:55.674Z,39.83
2019-01-13T19:23:25.825Z,40.17
2019-01-13T19:25:54.258Z,39.67
2019-01-13T19:28:22.744Z,46.47
2019-01-13T19:30:51.174Z,33.33
2019-01-13T19:33:19.578Z,41.23
2019-01-13T19:35:47.997Z,38.20
2019-01-13T19:38:16.867Z,39.17
2019-01-13T19:40:45.270Z,39.90
2019-01-13T19:43:13.836Z,39.87
2019-01-13T19:45:42.266Z,40.33
2019-01-13T19:48:10.701Z,36.30
2019-01-13T19:50:39.111Z,48.93
2019-01-13T19:53:07.808Z,48.07
2019-01-13T19:55:36.213Z,36.17
2019-01-13T19:58:04.883Z,44.07
2019-01-13T20:00:34.250Z,41.97
2019-01-13T20:03:02.666Z,27.20
2019-01-13T20:05:31.156Z,42.73
2019-01-13T20:07:59.626Z,42.83
2019-01-13T20:10:28.029Z,32.03
2019-01-13T20:12:56.538Z,40.73
2019-01-13T20:15:25.017Z,27.47
2019-01-13T20:17:53.422Z,34.97
2019-01-13T20:20:22.110Z,42.10
2019-01-13T20:22:50.614Z,40.13
2019-01-13T20:25:19.562Z,36.93
2019-01-13T20:27:47.995Z,32.10
2019-01-13T20:30:24.979Z,34.97
2019-01-13T20:32:54.186Z,32.57
2019-01-13T20:35:22.619Z,32.63
2019-01-13T20:37:51.070Z,25.77
2019-01-13T20:40:19.738Z,22.73
2019-01-13T20:42:48.290Z,27.40
2019-01-13T20:45:22.479Z,40.13
2019-01-13T20:47:51.169Z,30.77
2019-01-13T20:50:19.829Z,33.93
2019-01-13T20:52:48.275Z,34.17
2019-01-13T20:55:16.937Z,23.70
2019-01-13T20:57:45.454Z,29.80
2019-01-13T21:00:16.982Z,32.30
2019-01-13T21:02:45.535Z,27.43
2019-01-13T21:05:14.208Z,43.23
2019-01-13T21:07:42.614Z,29.77
2019-01-13T21:10:13.777Z,20.67
2019-01-13T21:12:42.269Z,37.27
2019-01-13T21:15:13.921Z,30.67
2019-01-13T21:17:42.409Z,37.70
2019-01-13T21:20:11.466Z,32.40
2019-01-13T21:22:40.041Z,40.03
2019-01-13T21:25:11.619Z,27.50
2019-01-13T21:27:40.265Z,34.77
2019-01-13T21:30:20.639Z,43.33
2019-01-13T21:32:49.129Z,30.73
2019-01-13T21:35:17.557Z,32.83
2019-01-13T21:37:46.003Z,34.27
2019-01-13T21:40:15.567Z,40.60
2019-01-13T21:42:43.990Z,32.43
2019-01-13T21:45:15.561Z,31.50
2019-01-13T21:47:43.995Z,27.20
2019-01-13T21:50:24.183Z,30.67
2019-01-13T21:52:53.042Z,35.97
2019-01-13T21:55:21.554Z,32.90
2019-01-13T21:57:49.970Z,34.33
2019-01-13T22:00:23.650Z,37.33
2019-01-13T22:02:52.331Z,37.00
2019-01-13T22:05:20.874Z,39.33
2019-01-13T22:07:49.426Z,32.17
2019-01-13T22:10:19.605Z,37.37
2019-01-13T22:12:48.083Z,46.27
2019-01-13T22:15:18.157Z,40.40
2019-01-13T22:17:46.579Z,43.53
2019-01-13T22:20:17.039Z,46.37
2019-01-13T22:22:45.594Z,37.30
2019-01-13T22:25:15.562Z,33.07
2019-01-13T22:27:44.145Z,39.33
2019-01-13T22:30:18.112Z,43.43
2019-01-13T22:32:46.522Z,30.37
2019-01-13T22:35:15.032Z,48.03
2019-01-13T22:37:43.566Z,36.07
2019-01-13T22:40:16.834Z,42.13
2019-01-13T22:42:45.374Z,40.63
2019-01-13T22:45:16.134Z,36.37
2019-01-13T22:47:44.580Z,33.23
2019-01-13T22:50:14.662Z,37.17
2019-01-13T22:52:43.171Z,51.70
2019-01-13T22:55:11.825Z,38.10
2019-01-13T22:57:40.272Z,43.70
2019-01-13T23:00:33.988Z,40.13
2019-01-13T23:03:02.447Z,35.80
2019-01-13T23:05:30.858Z,46.07
2019-01-13T23:07:59.284Z,44.90
2019-01-13T23:10:27.706Z,41.13
2019-01-13T23:12:56.714Z,49.40
2019-01-13T23:15:25.122Z,44.33
2019-01-13T23:17:53.562Z,56.27
2019-01-13T23:20:22.011Z,44.73
2019-01-13T23:22:50.438Z,44.80
2019-01-13T23:25:18.850Z,66.70
2019-01-13T23:27:47.283Z,43.47
2019-01-13T23:30:15.777Z,44.87
2019-01-13T23:32:44.214Z,43.70
2019-01-13T23:35:12.796Z,37.53
2019-01-13T23:37:41.205Z,46.67
2019-01-13T23:40:09.927Z,44.13
2019-01-13T23:42:38.374Z,40.90
2019-01-13T23:45:08.051Z,40.23
2019-01-13T23:47:36.545Z,45.07
2019-01-13T23:50:07.590Z,47.57
2019-01-13T23:52:36.090Z,45.50
2019-01-13T23:55:05.592Z,53.73
2019-01-13T23:57:33.993Z,41.73
